Time;durP1;ratioP1;P1;durP2;ratioP2;P2;SDS_P1;SDS_P2;PMS_P1;PMS_P2;Temp;Humidity;BMP_temperature;BMP_pressure;BME280_temperature;BME280_humidity;BME280_pressure;Samples;Min_cycle;Max_cycle;Signal;HPM_P1;HPM_P2
2022/07/13 00:01:16;;;;;;;7.70;5.00;;;20.50;99.90;;;;;;5052949;28;20128;-47
2022/07/13 00:03:42;;;;;;;8.40;5.30;;;20.40;99.90;;;;;;5053292;28;20037;-47
2022/07/13 00:06:07;;;;;;;8.25;5.05;;;20.40;99.90;;;;;;5053150;28;20087;-47
2022/07/13 00:08:33;;;;;;;7.35;5.10;;;20.40;99.90;;;;;;5052714;28;20068;-47
2022/07/13 00:10:59;;;;;;;7.20;5.28;;;20.40;99.90;;;;;;5052794;28;20102;-49
2022/07/13 00:13:25;;;;;;;9.13;6.00;;;20.30;99.90;;;;;;5052791;28;20029;-47
2022/07/13 00:15:51;;;;;;;9.20;5.80;;;20.30;99.90;;;;;;5034755;28;20056;-49
2022/07/13 00:18:16;;;;;;;8.15;6.25;;;20.40;99.90;;;;;;5052714;28;20037;-49
2022/07/13 00:20:43;;;;;;;9.35;6.15;;;20.40;99.90;;;;;;5052737;28;20124;-49
2022/07/13 00:23:09;;;;;;;7.28;5.30;;;20.30;99.90;;;;;;5052954;28;20052;-48
2022/07/13 00:25:35;;;;;;;7.28;5.20;;;20.30;99.90;;;;;;5052491;28;20041;-50
2022/07/13 00:28:00;;;;;;;9.00;5.40;;;20.40;99.90;;;;;;5052586;28;20124;-48
2022/07/13 00:30:26;;;;;;;7.78;5.47;;;20.40;99.90;;;;;;5052632;28;20072;-48
2022/07/13 00:32:52;;;;;;;7.43;4.80;;;20.40;99.90;;;;;;5052364;28;20044;-46
2022/07/13 00:35:17;;;;;;;8.43;5.40;;;20.40;99.90;;;;;;5052432;28;20045;-46
2022/07/13 00:37:43;;;;;;;9.60;5.93;;;20.40;99.90;;;;;;5052535;28;20055;-51
2022/07/13 00:40:09;;;;;;;6.68;4.68;;;20.40;99.90;;;;;;5067858;28;20128;-46
2022/07/13 00:42:35;;;;;;;8.77;5.18;;;20.40;99.90;;;;;;5052334;28;20033;-46
2022/07/13 00:45:01;;;;;;;8.65;5.82;;;20.40;99.90;;;;;;5052138;28;20074;-46
2022/07/13 00:47:32;;;;;;;9.70;6.38;;;20.30;99.90;;;;;;5052224;28;20033;-46
2022/07/13 00:50:04;;;;;;;8.70;5.40;;;20.40;99.90;;;;;;5052094;28;20044;-46
2022/07/13 00:52:30;;;;;;;7.88;5.25;;;20.30;99.90;;;;;;5052374;28;20033;-48
2022/07/13 00:54:56;;;;;;;8.02;5.90;;;20.30;99.90;;;;;;5052496;28;20113;-46
2022/07/13 00:57:23;;;;;;;7.97;5.45;;;20.30;99.90;;;;;;5034373;28;20045;-49
2022/07/13 00:59:50;;;;;;;7.85;6.05;;;20.30;99.90;;;;;;5052290;28;20039;-51
2022/07/13 01:02:15;;;;;;;6.85;5.00;;;20.30;99.90;;;;;;5052183;28;20070;-50
2022/07/13 01:04:41;;;;;;;8.82;5.13;;;20.40;99.90;;;;;;5051923;28;20045;-48
2022/07/13 01:07:07;;;;;;;8.07;5.30;;;20.40;99.90;;;;;;5051841;28;20057;-46
2022/07/13 01:09:32;;;;;;;7.57;5.47;;;20.40;99.90;;;;;;5051940;28;20048;-46
2022/07/13 01:11:59;;;;;;;8.93;5.40;;;20.30;99.90;;;;;;5052124;28;20115;-49
2022/07/13 01:14:25;;;;;;;9.80;5.80;;;20.40;99.90;;;;;;5051773;28;20163;-48
2022/07/13 01:16:51;;;;;;;9.45;5.72;;;20.40;99.90;;;;;;5052108;28;20048;-50
2022/07/13 01:19:18;;;;;;;8.48;5.45;;;20.40;99.90;;;;;;5052196;28;20358;-47
2022/07/13 01:21:45;;;;;;;9.55;6.10;;;20.30;99.90;;;;;;5051859;28;20045;-51
2022/07/13 01:24:12;;;;;;;8.00;5.55;;;20.30;99.90;;;;;;5052084;28;20094;-47
2022/07/13 01:26:39;;;;;;;9.70;6.22;;;20.30;99.90;;;;;;5050703;28;20072;-49
2022/07/13 01:29:05;;;;;;;8.30;6.25;;;20.30;99.90;;;;;;5055643;28;20037;-49
2022/07/13 01:31:41;;;;;;;11.02;6.45;;;20.20;99.90;;;;;;5056240;28;20040;-49
2022/07/13 01:34:07;;;;;;;9.38;6.63;;;20.30;99.90;;;;;;5055897;28;20076;-47
2022/07/13 01:36:37;;;;;;;12.18;6.78;;;20.30;99.90;;;;;;5054784;28;20075;-47
2022/07/13 01:39:04;;;;;;;11.02;6.50;;;20.30;99.90;;;;;;5056082;28;20430;-49
2022/07/13 01:41:29;;;;;;;8.98;6.65;;;20.20;99.90;;;;;;5054842;28;20156;-46
2022/07/13 01:43:59;;;;;;;8.57;6.82;;;20.20;99.90;;;;;;5071294;28;20072;-46
2022/07/13 01:46:26;;;;;;;11.32;7.25;;;20.20;99.90;;;;;;5054273;28;20053;-46
2022/07/13 01:48:53;;;;;;;9.02;7.25;;;20.30;99.90;;;;;;5055591;28;20068;-47
2022/07/13 01:51:19;;;;;;;10.68;7.88;;;20.20;99.90;;;;;;5052142;28;20044;-49
2022/07/13 01:53:45;;;;;;;9.95;7.25;;;20.30;99.90;;;;;;5055717;28;20425;-48
2022/07/13 01:56:12;;;;;;;10.25;7.88;;;20.30;99.90;;;;;;5055477;28;20041;-46
2022/07/13 01:58:37;;;;;;;9.25;6.97;;;20.30;99.90;;;;;;5055621;28;20115;-47
2022/07/13 02:01:04;;;;;;;13.25;8.95;;;20.30;99.90;;;;;;5055388;28;20564;-47
2022/07/13 02:03:31;;;;;;;11.02;7.85;;;20.30;99.90;;;;;;5055240;28;20041;-50
2022/07/13 02:05:58;;;;;;;10.88;7.55;;;20.30;99.90;;;;;;5055405;28;20048;-49
2022/07/13 02:08:24;;;;;;;10.20;8.18;;;20.30;99.90;;;;;;5037168;28;20497;-49
2022/07/13 02:10:50;;;;;;;12.40;9.43;;;20.30;99.90;;;;;;5054569;28;20041;-48
2022/07/13 02:13:16;;;;;;;11.45;8.45;;;20.40;99.90;;;;;;5036616;28;20047;-47
2022/07/13 02:15:43;;;;;;;13.07;9.35;;;20.40;99.90;;;;;;5037013;28;20081;-47
2022/07/13 02:18:08;;;;;;;11.65;8.98;;;20.40;99.90;;;;;;5054981;28;20048;-49
2022/07/13 02:20:35;;;;;;;11.18;9.20;;;20.40;99.90;;;;;;5054870;28;20036;-47
2022/07/13 02:23:01;;;;;;;12.07;10.45;;;20.40;99.90;;;;;;5054969;28;20044;-48
2022/07/13 02:25:27;;;;;;;12.50;10.05;;;20.40;99.90;;;;;;5054856;28;20045;-49
2022/07/13 02:27:53;;;;;;;12.35;9.40;;;20.40;99.90;;;;;;5055023;28;20037;-46
2022/07/13 02:30:19;;;;;;;10.93;8.93;;;20.40;99.90;;;;;;5055100;28;20082;-47
2022/07/13 02:32:45;;;;;;;12.20;9.73;;;20.40;99.90;;;;;;5070151;28;20421;-48
2022/07/13 02:35:12;;;;;;;13.70;10.00;;;20.40;99.90;;;;;;5054654;28;20052;-48
2022/07/13 02:37:39;;;;;;;13.70;10.32;;;20.40;99.90;;;;;;5054902;28;20085;-47
2022/07/13 02:40:10;;;;;;;13.13;10.00;;;20.40;99.90;;;;;;5054461;28;20456;-46
2022/07/13 02:42:36;;;;;;;10.98;9.55;;;20.40;99.90;;;;;;5053647;28;20144;-46
2022/07/13 02:45:02;;;;;;;11.93;8.98;;;20.40;99.90;;;;;;5054500;28;20170;-46
2022/07/13 02:47:28;;;;;;;13.23;10.20;;;20.40;99.90;;;;;;5054710;28;20045;-48
2022/07/13 02:49:53;;;;;;;12.82;9.73;;;20.40;99.90;;;;;;5054704;28;20385;-47
2022/07/13 02:52:19;;;;;;;12.18;9.00;;;20.40;99.90;;;;;;5054457;28;20041;-48
2022/07/13 02:54:45;;;;;;;13.25;9.20;;;20.40;99.90;;;;;;5054647;28;20417;-46
2022/07/13 02:57:11;;;;;;;11.68;8.75;;;20.40;99.90;;;;;;5054658;28;20130;-45
2022/07/13 02:59:37;;;;;;;13.25;9.95;;;20.40;99.90;;;;;;5054603;28;20481;-46
2022/07/13 03:02:05;;;;;;;11.07;9.18;;;20.30;99.90;;;;;;5054272;28;20076;-49
2022/07/13 03:04:31;;;;;;;12.32;9.68;;;20.30;99.90;;;;;;5054233;28;20041;-49
2022/07/13 03:06:57;;;;;;;11.20;9.98;;;20.30;99.90;;;;;;5054151;28;20065;-46
2022/07/13 03:09:23;;;;;;;12.98;10.05;;;20.30;99.90;;;;;;5054272;28;20049;-45
2022/07/13 03:11:49;;;;;;;13.48;9.48;;;20.30;99.90;;;;;;5053952;28;20041;-46
2022/07/13 03:14:14;;;;;;;12.32;9.75;;;20.30;99.90;;;;;;5054003;28;20029;-47
2022/07/13 03:16:40;;;;;;;12.98;9.48;;;20.30;99.90;;;;;;5054083;28;20587;-49
2022/07/13 03:19:07;;;;;;;14.50;10.05;;;20.30;99.90;;;;;;5035906;28;20033;-47
2022/07/13 03:21:32;;;;;;;12.25;9.35;;;20.30;99.90;;;;;;5053862;28;20040;-46
2022/07/13 03:23:58;;;;;;;12.60;10.27;;;20.30;99.90;;;;;;5052400;28;20485;-47
2022/07/13 03:26:24;;;;;;;12.18;9.57;;;20.20;99.90;;;;;;5052848;28;20033;-47
2022/07/13 03:28:50;;;;;;;12.95;10.10;;;20.30;99.90;;;;;;5053995;28;20041;-48
2022/07/13 03:31:17;;;;;;;13.85;10.45;;;20.30;99.90;;;;;;5053904;28;20076;-47
2022/07/13 03:33:43;;;;;;;12.88;9.75;;;20.30;99.90;;;;;;5053729;28;20412;-46
2022/07/13 03:36:08;;;;;;;12.00;9.55;;;20.20;99.90;;;;;;5053634;28;20053;-45
2022/07/13 03:38:35;;;;;;;13.43;9.95;;;20.20;99.90;;;;;;5053507;28;20040;-45
2022/07/13 03:41:01;;;;;;;12.93;10.43;;;20.20;99.90;;;;;;5052183;28;20048;-46
2022/07/13 03:43:27;;;;;;;13.38;10.68;;;20.20;99.90;;;;;;5053524;28;20421;-49
2022/07/13 03:45:52;;;;;;;13.10;10.15;;;20.20;99.90;;;;;;5053389;28;20037;-47
2022/07/13 03:48:18;;;;;;;12.70;10.50;;;20.20;99.90;;;;;;5053642;28;20043;-46
2022/07/13 03:50:45;;;;;;;13.25;10.02;;;20.20;99.90;;;;;;5051694;28;20500;-48
2022/07/13 03:53:11;;;;;;;12.40;9.27;;;20.20;99.90;;;;;;5053533;28;20033;-46
2022/07/13 03:55:38;;;;;;;12.43;9.80;;;20.20;99.90;;;;;;5053472;28;20081;-46
2022/07/13 03:58:04;;;;;;;12.27;9.70;;;20.20;99.90;;;;;;5053449;28;20082;-46
2022/07/13 04:00:31;;;;;;;13.43;9.80;;;20.20;99.90;;;;;;5053451;28;20055;-46
2022/07/13 04:02:57;;;;;;;12.27;9.98;;;20.20;99.90;;;;;;5052914;28;20512;-45
2022/07/13 04:05:26;;;;;;;14.80;9.68;;;20.10;99.90;;;;;;5053176;28;20041;-46
2022/07/13 04:07:52;;;;;;;12.48;9.48;;;20.20;99.90;;;;;;5052875;28;20410;-49
2022/07/13 04:10:18;;;;;;;13.07;8.88;;;20.20;99.90;;;;;;5035242;28;20053;-49
2022/07/13 04:12:45;;;;;;;13.55;8.85;;;20.20;99.90;;;;;;5052895;28;20051;-49
2022/07/13 04:15:11;;;;;;;12.35;8.98;;;20.20;99.90;;;;;;5052703;28;20497;-47
2022/07/13 04:17:37;;;;;;;12.77;9.98;;;20.20;99.90;;;;;;5053023;28;20440;-48
2022/07/13 04:20:04;;;;;;;12.40;9.18;;;20.20;99.90;;;;;;5052664;28;20044;-46
2022/07/13 04:22:29;;;;;;;12.00;9.32;;;20.20;99.90;;;;;;5052842;28;20036;-44
2022/07/13 04:24:55;;;;;;;12.80;9.40;;;20.20;99.90;;;;;;5052669;28;20056;-46
2022/07/13 04:27:21;;;;;;;12.27;9.13;;;20.20;99.90;;;;;;5052709;28;20493;-47
2022/07/13 04:29:47;;;;;;;13.40;9.52;;;20.20;99.90;;;;;;5068060;28;20068;-46
2022/07/13 04:32:12;;;;;;;14.15;9.98;;;20.20;99.90;;;;;;5052938;28;20033;-47
2022/07/13 04:34:38;;;;;;;14.07;10.80;;;20.30;99.90;;;;;;5052645;28;20650;-46
2022/07/13 04:37:04;;;;;;;13.05;9.88;;;20.20;99.90;;;;;;5052556;28;20037;-47
2022/07/13 04:39:30;;;;;;;12.27;10.23;;;20.20;99.90;;;;;;5052703;28;20056;-48
2022/07/13 04:41:55;;;;;;;12.43;9.60;;;20.30;99.90;;;;;;5052648;28;20036;-46
2022/07/13 04:44:21;;;;;;;11.82;8.82;;;20.30;99.90;;;;;;5052566;28;20366;-59
2022/07/13 04:46:47;;;;;;;13.20;9.90;;;20.30;99.90;;;;;;5052564;28;20064;-59
2022/07/13 04:49:13;;;;;;;12.65;10.02;;;20.30;99.90;;;;;;5052330;28;20119;-59
2022/07/13 04:51:39;;;;;;;13.30;10.02;;;20.30;99.90;;;;;;5052239;28;20494;-58
2022/07/13 04:54:05;;;;;;;14.65;10.90;;;20.30;99.90;;;;;;5052040;28;20132;-59
2022/07/13 04:56:30;;;;;;;15.20;11.25;;;20.30;99.90;;;;;;5052446;28;20045;-59
2022/07/13 04:58:56;;;;;;;14.55;10.52;;;20.30;99.90;;;;;;5018136;28;20059;-59
2022/07/13 05:01:22;;;;;;;13.95;10.48;;;20.30;99.90;;;;;;5052273;28;20056;-59
2022/07/13 05:03:47;;;;;;;13.02;10.90;;;20.30;99.90;;;;;;5052388;28;20043;-59
2022/07/13 05:06:14;;;;;;;13.50;11.27;;;20.30;99.90;;;;;;5052310;28;20555;-59
2022/07/13 05:08:40;;;;;;;14.88;11.50;;;20.30;99.90;;;;;;5051772;28;20061;-59
2022/07/13 05:11:08;;;;;;;13.85;10.57;;;20.30;99.90;;;;;;5051045;28;20055;-58
2022/07/13 05:13:33;;;;;;;13.18;10.55;;;20.30;99.90;;;;;;5051165;28;20053;-59
2022/07/13 05:15:59;;;;;;;15.25;12.02;;;20.30;99.90;;;;;;5033500;28;20110;-59
2022/07/13 05:18:25;;;;;;;14.68;11.65;;;20.20;99.90;;;;;;5051381;28;20075;-58
2022/07/13 05:20:50;;;;;;;13.38;10.40;;;20.20;99.90;;;;;;5051403;28;20432;-59
2022/07/13 05:23:16;;;;;;;13.90;11.07;;;20.10;99.90;;;;;;5051323;28;20128;-59
2022/07/13 05:25:42;;;;;;;14.75;11.05;;;20.20;99.90;;;;;;5051378;28;20060;-59
2022/07/13 05:28:07;;;;;;;15.15;11.30;;;20.10;99.90;;;;;;5051211;28;20460;-59
2022/07/13 05:30:33;;;;;;;13.02;10.23;;;20.20;99.90;;;;;;5051324;28;20401;-59
2022/07/13 05:32:59;;;;;;;17.15;11.65;;;20.10;99.90;;;;;;5051363;28;20044;-59
2022/07/13 05:35:24;;;;;;;13.90;11.18;;;20.10;99.90;;;;;;5050954;28;20075;-59
2022/07/13 05:37:50;;;;;;;15.30;12.30;;;20.10;99.90;;;;;;5051041;28;20044;-59
2022/07/13 05:40:16;;;;;;;14.30;10.52;;;20.10;99.90;;;;;;5050902;28;20049;-59
2022/07/13 05:42:42;;;;;;;13.80;11.68;;;20.10;99.90;;;;;;5051146;28;20053;-59
2022/07/13 05:45:08;;;;;;;14.57;11.80;;;20.10;99.90;;;;;;5050631;28;20077;-59
2022/07/13 05:47:33;;;;;;;17.63;11.85;;;20.10;99.90;;;;;;5051063;28;20193;-59
2022/07/13 05:49:59;;;;;;;14.55;12.00;;;20.00;99.90;;;;;;5050867;28;20112;-59
2022/07/13 05:52:25;;;;;;;14.88;11.45;;;20.00;99.90;;;;;;5050880;28;20111;-59
2022/07/13 05:54:51;;;;;;;15.98;11.73;;;20.10;99.90;;;;;;5033235;28;20469;-59
2022/07/13 05:57:17;;;;;;;13.88;11.88;;;20.00;99.90;;;;;;5050995;28;20072;-60
2022/07/13 05:59:43;;;;;;;15.77;12.20;;;20.10;99.90;;;;;;5050999;28;20092;-59
2022/07/13 06:02:08;;;;;;;15.88;12.18;;;20.20;99.90;;;;;;5050732;28;20033;-59
2022/07/13 06:04:34;;;;;;;15.80;11.93;;;20.20;99.90;;;;;;5050381;28;20401;-59
2022/07/13 06:06:59;;;;;;;16.77;10.85;;;20.30;99.90;;;;;;5050185;28;20053;-59
2022/07/13 06:09:25;;;;;;;16.20;11.50;;;20.30;99.90;;;;;;5050495;28;20045;-60
2022/07/13 06:11:51;;;;;;;15.48;11.73;;;20.30;99.90;;;;;;5050446;28;20044;-59
2022/07/13 06:14:16;;;;;;;14.25;11.68;;;20.40;99.90;;;;;;5052895;28;20025;-59
2022/07/13 06:16:42;;;;;;;15.45;12.15;;;20.40;99.90;;;;;;5054540;28;20933;-59
2022/07/13 06:19:08;;;;;;;22.48;13.48;;;20.50;99.90;;;;;;5054164;28;20053;-59
2022/07/13 06:21:33;;;;;;;15.20;11.07;;;20.50;99.90;;;;;;5054392;28;20570;-58
2022/07/13 06:23:59;;;;;;;12.65;10.40;;;20.50;99.90;;;;;;5054349;28;20045;-59
2022/07/13 06:26:25;;;;;;;14.38;9.05;;;20.60;99.90;;;;;;5054200;28;20122;-59
2022/07/13 06:28:50;;;;;;;13.93;9.60;;;20.60;99.90;;;;;;5054272;28;20554;-59
2022/07/13 06:31:16;;;;;;;16.55;10.35;;;20.60;99.90;;;;;;5053812;28;20044;-59
2022/07/13 06:33:42;;;;;;;15.15;9.75;;;20.60;99.90;;;;;;5053872;28;20115;-59
2022/07/13 06:36:10;;;;;;;15.13;9.90;;;20.80;99.90;;;;;;5053845;28;20044;-58
2022/07/13 06:38:36;;;;;;;16.52;10.95;;;20.90;99.90;;;;;;5053835;28;20463;-59
2022/07/13 06:41:02;;;;;;;17.90;10.63;;;20.90;99.90;;;;;;5052521;28;20128;-59
2022/07/13 06:43:27;;;;;;;16.00;11.15;;;21.00;99.90;;;;;;5054016;28;20496;-59
2022/07/13 06:45:53;;;;;;;15.32;11.13;;;21.00;99.90;;;;;;5053399;28;20132;-59
2022/07/13 06:48:19;;;;;;;14.27;10.63;;;21.00;99.90;;;;;;5053816;28;20067;-59
2022/07/13 06:50:44;;;;;;;17.80;10.65;;;21.20;99.90;;;;;;5053510;28;20045;-59
2022/07/13 06:53:10;;;;;;;16.63;12.02;;;21.30;99.90;;;;;;5053644;28;20423;-59
2022/07/13 06:55:36;;;;;;;17.95;11.27;;;21.30;99.90;;;;;;5035730;28;20048;-59
2022/07/13 06:58:02;;;;;;;15.75;11.60;;;21.40;99.90;;;;;;5053683;28;20132;-59
2022/07/13 07:00:28;;;;;;;19.67;13.23;;;21.30;99.90;;;;;;5035576;28;20530;-59
2022/07/13 07:02:54;;;;;;;16.95;14.25;;;21.50;99.90;;;;;;5053236;28;20041;-60
2022/07/13 07:05:19;;;;;;;17.90;12.93;;;21.40;99.90;;;;;;5052970;28;20040;-60
2022/07/13 07:07:45;;;;;;;17.38;13.68;;;21.50;99.90;;;;;;5053196;28;20056;-61
2022/07/13 07:10:11;;;;;;;21.25;14.65;;;21.60;99.90;;;;;;5035225;28;20072;-60
2022/07/13 07:12:37;;;;;;;21.80;14.13;;;21.60;99.90;;;;;;5035476;28;20044;-60
2022/07/13 07:15:03;;;;;;;20.60;14.35;;;21.80;99.90;;;;;;5052958;28;20546;-60
2022/07/13 07:17:29;;;;;;;22.38;15.98;;;21.80;99.90;;;;;;5052118;28;20481;-60
2022/07/13 07:19:59;;;;;;;19.30;15.25;;;21.80;99.90;;;;;;5052471;28;20044;-60
2022/07/13 07:22:25;;;;;;;22.15;16.15;;;21.80;99.90;;;;;;5050540;28;20045;-60
2022/07/13 07:24:51;;;;;;;22.45;14.95;;;21.90;99.90;;;;;;5051526;28;20045;-60
2022/07/13 07:27:17;;;;;;;19.48;15.70;;;21.90;99.90;;;;;;5052640;28;20090;-60
2022/07/13 07:29:43;;;;;;;18.67;15.25;;;22.00;99.90;;;;;;5052666;28;20075;-60
2022/07/13 07:32:08;;;;;;;20.75;14.63;;;22.10;99.90;;;;;;5049032;28;20537;-61
2022/07/13 07:34:34;;;;;;;19.58;14.52;;;22.10;99.90;;;;;;5042786;28;20033;-60
2022/07/13 07:37:00;;;;;;;17.70;13.95;;;22.10;99.90;;;;;;5025116;28;20033;-60
2022/07/13 07:39:26;;;;;;;19.85;14.75;;;22.30;99.90;;;;;;5049275;28;20416;-60
2022/07/13 07:41:52;;;;;;;20.02;14.07;;;22.20;99.90;;;;;;5052198;28;20045;-60
2022/07/13 07:44:18;;;;;;;23.77;16.60;;;22.40;99.90;;;;;;5052469;28;20433;-60
2022/07/13 07:46:44;;;;;;;20.65;14.10;;;22.50;99.90;;;;;;5051963;28;20478;-60
2022/07/13 07:49:10;;;;;;;19.77;13.63;;;22.60;99.90;;;;;;5052344;28;20033;-60
2022/07/13 07:51:36;;;;;;;18.42;14.50;;;22.60;99.90;;;;;;5031605;28;20032;-60
2022/07/13 07:54:02;;;;;;;18.33;13.90;;;22.50;99.90;;;;;;5043608;28;20041;-60
2022/07/13 07:56:28;;;;;;;18.30;13.07;;;22.60;99.90;;;;;;5051489;28;20040;-60
2022/07/13 07:58:53;;;;;;;19.05;13.35;;;22.80;99.90;;;;;;5033652;28;20099;-60
2022/07/13 08:01:20;;;;;;;17.92;13.32;;;22.70;99.90;;;;;;5050744;28;20055;-60
2022/07/13 08:03:45;;;;;;;17.15;12.60;;;22.90;99.90;;;;;;5024320;28;20481;-60
2022/07/13 08:06:12;;;;;;;18.92;13.55;;;22.80;99.90;;;;;;5040424;28;20036;-60
2022/07/13 08:08:38;;;;;;;17.73;13.02;;;23.00;99.90;;;;;;5043893;28;20141;-60
2022/07/13 08:11:04;;;;;;;16.42;12.02;;;23.00;99.90;;;;;;5041966;28;20045;-60
2022/07/13 08:13:30;;;;;;;14.95;10.80;;;23.00;99.90;;;;;;5048592;28;20440;-60
2022/07/13 08:15:56;;;;;;;16.17;11.02;;;23.10;99.90;;;;;;5051411;28;20437;-60
2022/07/13 08:18:22;;;;;;;17.83;10.73;;;23.10;99.90;;;;;;5051565;28;20045;-60
2022/07/13 08:20:48;;;;;;;15.73;9.60;;;23.20;99.90;;;;;;5051316;28;20437;-60
2022/07/13 08:25:58;;;;;;;14.65;10.10;;;23.30;99.90;;;;;;5051665;28;20063;-61
2022/07/13 08:28:24;;;;;;;13.45;8.75;;;23.30;99.90;;;;;;5052136;28;20499;-60
2022/07/13 08:30:49;;;;;;;16.20;9.35;;;23.30;99.90;;;;;;5052293;28;20037;-60
2022/07/13 08:33:15;;;;;;;11.73;8.30;;;23.60;99.90;;;;;;5052313;28;20069;-60
2022/07/13 08:38:40;;;;;;;10.85;5.93;;;23.80;99.90;;;;;;5052397;28;20098;-60
2022/07/13 08:41:06;;;;;;;15.10;8.77;;;23.80;99.90;;;;;;5052512;28;20059;-61
2022/07/13 08:43:34;;;;;;;13.63;8.38;;;23.80;99.90;;;;;;5051927;28;20267;-60
2022/07/13 08:46:05;;;;;;;13.00;7.22;;;24.00;99.90;;;;;;5052228;28;20049;-60
2022/07/13 08:48:35;;;;;;;12.75;6.40;;;24.00;99.90;;;;;;5051683;28;20430;-61
2022/07/13 08:51:01;;;;;;;9.77;5.00;;;23.90;99.90;;;;;;5034577;28;20048;-60
2022/07/13 08:53:27;;;;;;;9.35;4.90;;;24.10;99.90;;;;;;5051911;28;20493;-60
2022/07/13 08:55:56;;;;;;;7.75;4.30;;;24.20;99.90;;;;;;5051762;28;20079;-61
2022/07/13 08:58:22;;;;;;;9.80;4.50;;;24.20;99.90;;;;;;5049872;28;20055;-61
2022/07/13 09:00:49;;;;;;;8.85;5.60;;;24.40;99.90;;;;;;5051889;28;20155;-61
2022/07/13 09:03:15;;;;;;;9.40;4.78;;;24.50;99.90;;;;;;5052013;28;20810;-61
2022/07/13 09:05:41;;;;;;;7.72;3.83;;;24.60;99.90;;;;;;5051524;28;20402;-60
2022/07/13 09:08:09;;;;;;;8.45;3.72;;;24.50;99.90;;;;;;5051268;28;20048;-60
2022/07/13 09:10:55;;;;;;;10.65;3.78;;;24.40;99.90;;;;;;5051622;28;20069;-60
2022/07/13 09:13:44;;;;;;;9.52;2.85;;;24.30;99.90;;;;;;5049344;28;20041;-60
2022/07/13 09:16:18;;;;;;;8.05;2.42;;;24.40;99.90;;;;;;5050459;28;20033;-60
2022/07/13 09:18:49;;;;;;;7.95;2.50;;;24.40;99.90;;;;;;5051865;28;20040;-60
2022/07/13 09:21:15;;;;;;;9.63;3.65;;;24.60;99.90;;;;;;5051693;28;20549;-60
2022/07/13 09:23:42;;;;;;;7.32;2.78;;;24.50;99.90;;;;;;5051367;28;20075;-60
2022/07/13 09:26:07;;;;;;;10.02;2.75;;;24.30;99.90;;;;;;5033823;28;20416;-60
2022/07/13 09:28:44;;;;;;;6.60;2.97;;;24.60;99.90;;;;;;5051360;28;20039;-60
2022/07/13 09:31:11;;;;;;;5.93;3.03;;;24.60;99.90;;;;;;5051167;28;20044;-60
2022/07/13 09:33:38;;;;;;;6.70;2.53;;;24.70;99.90;;;;;;5050251;28;20207;-60
2022/07/13 09:36:24;;;;;;;5.78;2.63;;;24.70;99.90;;;;;;5050748;28;20041;-60
2022/07/13 09:38:53;;;;;;;8.55;2.60;;;24.70;99.90;;;;;;5051123;28;20093;-60
2022/07/13 09:41:22;;;;;;;6.57;2.17;;;24.40;99.90;;;;;;5051159;28;20049;-60
2022/07/13 09:47:01;;;;;;;8.68;3.55;;;24.70;99.90;;;;;;5049936;28;20110;-60
2022/07/13 09:49:41;;;;;;;6.43;2.60;;;24.80;99.90;;;;;;5052800;28;20090;-60
2022/07/13 09:52:17;;;;;;;6.93;2.85;;;24.60;99.90;;;;;;5054330;28;20045;-60
2022/07/13 09:54:44;;;;;;;6.45;2.30;;;24.80;99.90;;;;;;5037105;28;20068;-60
2022/07/13 09:57:13;;;;;;;6.80;2.80;;;24.80;99.90;;;;;;5054804;28;20484;-60
2022/07/13 09:59:42;;;;;;;10.35;2.65;;;24.70;99.90;;;;;;5054472;28;20037;-61
2022/07/13 10:02:08;;;;;;;8.43;2.55;;;24.80;99.90;;;;;;5054255;28;20048;-60
2022/07/13 10:04:37;;;;;;;7.20;2.78;;;24.80;99.90;;;;;;5055094;28;20107;-60
2022/07/13 10:07:04;;;;;;;7.82;2.17;;;24.70;99.90;;;;;;5054994;28;20656;-60
2022/07/13 10:09:31;;;;;;;5.65;2.33;;;24.60;99.90;;;;;;5055419;28;20068;-60
2022/07/13 10:11:58;;;;;;;5.88;2.30;;;24.60;99.90;;;;;;5055106;28;20033;-60
2022/07/13 10:14:26;;;;;;;8.18;2.50;;;24.40;99.90;;;;;;5054833;28;20049;-60
2022/07/13 10:17:04;;;;;;;4.75;1.90;;;24.70;99.90;;;;;;5054997;28;20091;-60
2022/07/13 10:19:32;;;;;;;6.25;2.95;;;24.70;99.90;;;;;;5055051;28;20051;-60
2022/07/13 10:22:11;;;;;;;6.10;2.13;;;24.70;99.90;;;;;;5054836;28;20052;-60
2022/07/13 10:24:37;;;;;;;5.90;2.00;;;24.60;99.90;;;;;;5054898;28;20041;-60
2022/07/13 10:27:24;;;;;;;8.38;2.28;;;24.80;99.90;;;;;;5053276;28;20068;-60
2022/07/13 10:29:57;;;;;;;6.55;2.20;;;25.10;99.90;;;;;;5054164;28;20121;-60
2022/07/13 10:32:26;;;;;;;7.43;2.38;;;25.00;99.90;;;;;;5054131;28;20108;-60
2022/07/13 10:35:09;;;;;;;5.40;1.92;;;25.00;99.90;;;;;;5054118;28;20044;-60
2022/07/13 10:37:56;;;;;;;4.70;2.20;;;24.80;99.90;;;;;;5053918;28;20047;-60
2022/07/13 10:40:26;;;;;;;6.45;2.20;;;24.60;99.90;;;;;;5053718;28;20127;-60
2022/07/13 10:42:59;;;;;;;6.57;2.38;;;24.70;99.90;;;;;;5052995;28;20044;-60
2022/07/13 10:45:40;;;;;;;4.90;2.00;;;24.40;99.90;;;;;;5053090;28;20123;-60
2022/07/13 10:48:30;;;;;;;7.10;2.17;;;24.80;99.90;;;;;;5053957;28;20036;-60
2022/07/13 10:50:57;;;;;;;4.60;1.83;;;24.90;99.90;;;;;;5053732;28;20056;-60
2022/07/13 10:53:38;;;;;;;4.57;1.60;;;24.50;99.90;;;;;;5053922;28;20057;-61
2022/07/13 10:56:25;;;;;;;4.60;1.87;;;24.50;99.90;;;;;;5054136;28;20045;-60
2022/07/13 10:58:51;;;;;;;4.60;1.73;;;24.70;99.90;;;;;;5053693;28;20296;-60
2022/07/13 11:01:45;;;;;;;4.55;1.83;;;24.60;99.90;;;;;;5053779;28;20037;-60
2022/07/13 11:04:17;;;;;;;5.50;2.13;;;24.50;99.90;;;;;;5053982;28;20051;-60
2022/07/13 11:07:02;;;;;;;8.35;2.05;;;24.50;99.90;;;;;;5053751;28;20049;-60
2022/07/13 11:09:28;;;;;;;4.75;2.08;;;24.60;99.90;;;;;;5053483;28;20494;-60
2022/07/13 11:11:54;;;;;;;6.97;2.65;;;24.70;99.90;;;;;;5054090;28;20048;-60
2022/07/13 11:14:41;;;;;;;7.82;2.13;;;24.50;99.90;;;;;;5053239;28;20083;-60
2022/07/13 11:17:15;;;;;;;7.88;2.38;;;24.30;99.90;;;;;;5053972;28;20056;-61
2022/07/13 11:19:56;;;;;;;7.68;2.60;;;24.20;99.90;;;;;;5053894;28;20044;-59
2022/07/13 11:22:22;;;;;;;6.63;2.28;;;23.90;99.90;;;;;;5054128;28;20033;-60
2022/07/13 11:25:14;;;;;;;4.60;2.10;;;24.00;99.90;;;;;;5053864;28;20452;-60
2022/07/13 11:27:52;;;;;;;;;;;24.10;99.90;;;;;;5054225;28;20037;-60
2022/07/13 11:30:28;;;;;;;6.28;2.63;;;23.80;99.90;;;;;;5053765;28;19920;-60
2022/07/13 11:32:54;;;;;;;7.45;3.28;;;24.00;99.90;;;;;;5053815;28;20041;-61
2022/07/13 11:35:20;;;;;;;7.68;2.78;;;24.10;99.90;;;;;;5053589;28;20454;-60
2022/07/13 11:37:46;;;;;;;7.95;3.20;;;23.80;99.90;;;;;;5053506;28;20041;-60
2022/07/13 11:40:29;;;;;;;6.32;2.80;;;23.70;99.90;;;;;;5053348;28;20127;-60
2022/07/13 11:42:57;;;;;;;6.72;3.05;;;23.60;99.90;;;;;;5053621;28;20037;-60
2022/07/13 11:45:29;;;;;;;8.00;2.80;;;23.90;99.90;;;;;;5035251;28;20048;-58
2022/07/13 11:48:00;;;;;;;7.93;3.03;;;23.80;99.90;;;;;;5053558;28;20420;-59
2022/07/13 11:50:45;;;;;;;6.60;2.83;;;23.90;99.90;;;;;;5053223;28;20380;-59
2022/07/13 11:53:22;;;;;;;6.03;2.40;;;23.40;99.90;;;;;;5033195;28;20041;-59
2022/07/13 11:55:48;;;;;;;6.97;2.80;;;23.60;99.90;;;;;;5033093;28;20474;-59
2022/07/13 11:58:27;;;;;;;6.07;2.65;;;23.50;99.90;;;;;;5032962;28;20140;-60
2022/07/13 12:00:52;;;;;;;7.22;2.88;;;23.80;99.90;;;;;;5033029;28;20041;-45
2022/07/13 12:03:32;;;;;;;6.68;2.58;;;24.00;99.90;;;;;;5032803;28;20045;-50
2022/07/13 12:06:04;;;;;;;8.75;2.67;;;24.00;99.90;;;;;;5032877;28;20045;-46
2022/07/13 12:08:33;;;;;;;9.73;3.03;;;24.20;99.90;;;;;;5032793;28;20049;-45
2022/07/13 12:11:00;;;;;;;5.97;2.80;;;23.70;99.90;;;;;;5032331;28;20073;-46
2022/07/13 12:13:26;;;;;;;7.75;3.40;;;23.60;99.90;;;;;;5032771;28;20482;-49
2022/07/13 12:15:51;;;;;;;8.30;2.78;;;23.40;99.90;;;;;;5034885;28;20037;-50
2022/07/13 12:18:17;;;;;;;7.68;2.72;;;23.30;99.90;;;;;;5052335;28;20053;-46
2022/07/13 12:20:43;;;;;;;7.20;3.08;;;23.30;99.90;;;;;;5052477;28;20052;-47
2022/07/13 12:23:09;;;;;;;7.00;2.78;;;23.20;99.90;;;;;;5051642;28;20470;-48
2022/07/13 12:25:36;;;;;;;7.60;3.28;;;23.20;99.90;;;;;;5033988;28;20069;-50
2022/07/13 12:28:04;;;;;;;6.88;2.83;;;23.50;99.90;;;;;;5051758;28;20032;-45
2022/07/13 12:30:32;;;;;;;8.48;3.13;;;23.60;99.90;;;;;;5052504;28;20041;-45
2022/07/13 12:33:00;;;;;;;9.75;3.05;;;23.40;99.90;;;;;;5052379;28;20033;-45
2022/07/13 12:35:37;;;;;;;7.65;2.90;;;23.40;99.90;;;;;;5052716;28;20048;-45
2022/07/13 12:38:12;;;;;;;8.40;3.00;;;23.80;99.90;;;;;;5052573;28;20460;-45
2022/07/13 12:40:42;;;;;;;8.95;3.13;;;23.80;99.90;;;;;;5052363;28;20029;-45
2022/07/13 12:43:18;;;;;;;6.38;2.47;;;23.60;99.90;;;;;;5052625;28;20044;-47
2022/07/13 12:45:51;;;;;;;8.43;2.67;;;23.40;99.90;;;;;;5052055;28;20048;-48
2022/07/13 12:48:22;;;;;;;8.25;2.33;;;23.80;99.90;;;;;;5051854;28;20049;-44
2022/07/13 12:51:02;;;;;;;9.10;2.95;;;23.70;99.90;;;;;;5051924;28;20037;-59